createdAt,value
2018-01-24T00:01:48.430Z,3.63
2018-01-24T00:04:16.694Z,4.60
2018-01-24T00:06:44.972Z,3.70
2018-01-24T00:09:13.236Z,4.30
2018-01-24T00:11:41.490Z,3.80
2018-01-24T00:14:10.533Z,3.30
2018-01-24T00:16:38.810Z,3.43
2018-01-24T00:19:07.067Z,3.00
2018-01-24T00:21:35.331Z,4.20
2018-01-24T00:24:04.338Z,3.70
2018-01-24T00:26:32.591Z,3.97
2018-01-24T00:29:00.855Z,4.40
2018-01-24T00:31:29.322Z,4.03
2018-01-24T00:33:57.575Z,4.70
2018-01-24T00:36:25.875Z,4.13
2018-01-24T00:38:54.113Z,4.80
2018-01-24T00:41:23.154Z,3.87
2018-01-24T00:43:51.431Z,4.33
2018-01-24T00:46:19.797Z,4.10
2018-01-24T00:48:48.128Z,4.10
2018-01-24T00:51:16.379Z,4.20
2018-01-24T00:53:44.662Z,5.30
2018-01-24T00:56:12.922Z,4.40
2018-01-24T00:58:41.166Z,3.93
2018-01-24T01:01:10.209Z,4.10
2018-01-24T01:03:38.453Z,3.80
2018-01-24T01:06:07.485Z,4.13
2018-01-24T01:08:35.748Z,3.53
2018-01-24T01:11:04.051Z,4.03
2018-01-24T01:13:32.288Z,3.90
2018-01-24T01:16:01.317Z,4.70
2018-01-24T01:18:29.561Z,4.00
2018-01-24T01:20:58.593Z,5.30
2018-01-24T01:23:26.880Z,3.97
2018-01-24T01:25:55.143Z,5.73
2018-01-24T01:28:23.390Z,4.40
2018-01-24T01:30:51.681Z,4.93
2018-01-24T01:33:20.694Z,4.30
2018-01-24T01:35:49.010Z,4.57
2018-01-24T01:38:17.248Z,5.80
2018-01-24T01:40:45.586Z,4.03
2018-01-24T01:43:13.851Z,4.13
2018-01-24T01:45:42.142Z,3.73
2018-01-24T01:48:10.401Z,4.73
2018-01-24T01:50:38.661Z,4.33
2018-01-24T01:53:06.907Z,4.00
2018-01-24T01:55:36.687Z,4.03
2018-01-24T01:58:04.926Z,4.57
2018-01-24T02:00:33.991Z,3.83
2018-01-24T02:03:02.226Z,4.73
2018-01-24T02:05:30.485Z,4.57
2018-01-24T02:07:59.506Z,4.23
2018-01-24T02:10:27.761Z,4.07
2018-01-24T02:12:56.801Z,4.63
2018-01-24T02:15:25.132Z,5.53
2018-01-24T02:17:54.263Z,4.60
2018-01-24T02:20:22.529Z,5.60
2018-01-24T02:22:51.557Z,3.60
2018-01-24T02:25:19.822Z,4.27
2018-01-24T02:27:49.510Z,4.60
2018-01-24T02:30:18.518Z,3.80
2018-01-24T02:32:47.538Z,4.20
2018-01-24T02:35:15.794Z,5.00
2018-01-24T02:37:44.817Z,3.97
2018-01-24T02:40:13.050Z,4.20
2018-01-24T02:42:42.907Z,3.97
2018-01-24T02:45:11.197Z,3.63
2018-01-24T02:47:39.445Z,3.77
2018-01-24T02:50:08.473Z,4.40
2018-01-24T02:52:36.754Z,4.00
2018-01-24T02:55:05.003Z,3.80
2018-01-24T02:57:34.046Z,3.43
2018-01-24T03:00:02.286Z,4.00
2018-01-24T03:02:31.324Z,3.87
2018-01-24T03:04:59.549Z,4.00
2018-01-24T03:07:28.592Z,3.80
2018-01-24T03:09:56.825Z,3.83
2018-01-24T03:12:25.935Z,3.20
2018-01-24T03:14:54.939Z,3.10
2018-01-24T03:17:23.974Z,3.87
2018-01-24T03:19:52.250Z,4.00
2018-01-24T03:22:20.534Z,4.33
2018-01-24T03:24:48.777Z,3.87
2018-01-24T03:27:17.804Z,4.37
2018-01-24T03:29:46.038Z,4.00
2018-01-24T03:32:14.311Z,4.00
2018-01-24T03:34:42.553Z,3.80
2018-01-24T03:37:10.842Z,3.90
2018-01-24T03:39:39.077Z,4.20
2018-01-24T03:42:08.110Z,3.97
2018-01-24T03:44:36.355Z,4.17
2018-01-24T03:47:05.373Z,3.23
2018-01-24T03:49:33.621Z,4.30
2018-01-24T03:52:02.678Z,3.87
2018-01-24T03:54:30.907Z,3.83
2018-01-24T03:57:00.047Z,4.13
2018-01-24T03:59:28.341Z,3.80
2018-01-24T04:01:56.606Z,4.40
2018-01-24T04:04:24.850Z,4.33
2018-01-24T04:06:53.872Z,3.00
2018-01-24T04:09:22.178Z,4.30
2018-01-24T04:11:50.487Z,3.40
2018-01-24T04:14:18.697Z,3.87
2018-01-24T04:16:47.022Z,4.13
2018-01-24T04:19:15.401Z,4.50
2018-01-24T04:21:43.666Z,3.83
2018-01-24T04:24:11.949Z,3.80
2018-01-24T04:26:40.220Z,4.40
2018-01-24T04:29:08.477Z,4.20
2018-01-24T04:31:37.497Z,5.00
2018-01-24T04:34:05.792Z,3.97
2018-01-24T04:36:34.044Z,3.83
2018-01-24T04:39:02.292Z,3.90
2018-01-24T04:41:30.564Z,3.90
2018-01-24T04:43:58.810Z,4.07
2018-01-24T04:46:27.059Z,3.27
2018-01-24T04:48:55.406Z,4.00
2018-01-24T04:51:24.195Z,3.80
2018-01-24T04:53:54.367Z,3.40
2018-01-24T04:56:22.704Z,3.73
2018-01-24T04:58:50.938Z,3.87
2018-01-24T05:01:19.194Z,3.73
2018-01-24T05:03:47.442Z,3.70
2018-01-24T05:06:15.693Z,4.47
2018-01-24T05:08:45.108Z,3.80
2018-01-24T05:11:13.363Z,3.47
2018-01-24T05:13:41.601Z,3.77
2018-01-24T05:16:10.626Z,4.60
2018-01-24T05:18:38.869Z,3.93
2018-01-24T05:21:07.934Z,3.63
2018-01-24T05:23:36.220Z,3.80
2018-01-24T05:26:04.459Z,3.53
2018-01-24T05:28:33.478Z,4.20
2018-01-24T05:31:02.590Z,3.40
2018-01-24T05:33:30.850Z,3.33
2018-01-24T05:35:59.212Z,3.70
2018-01-24T05:38:28.242Z,3.40
2018-01-24T05:40:56.490Z,3.80
2018-01-24T05:43:25.529Z,3.83
2018-01-24T05:45:53.793Z,3.80
2018-01-24T05:48:22.055Z,4.27
2018-01-24T05:50:51.054Z,4.30
2018-01-24T05:53:19.322Z,3.63
2018-01-24T05:55:48.329Z,4.30
2018-01-24T05:58:17.387Z,4.07
2018-01-24T06:00:45.630Z,4.23
2018-01-24T06:03:13.886Z,4.27
2018-01-24T06:05:43.521Z,4.10
2018-01-24T06:08:11.778Z,4.47
2018-01-24T06:10:40.108Z,4.13
2018-01-24T06:13:08.371Z,3.83
2018-01-24T06:15:37.436Z,4.63
2018-01-24T06:18:06.581Z,4.00
2018-01-24T06:23:10.406Z,4.73
2018-01-24T06:25:38.650Z,4.27
2018-01-24T06:28:07.681Z,4.80
2018-01-24T06:30:35.937Z,4.57
2018-01-24T06:33:04.214Z,4.63
2018-01-24T06:35:32.557Z,4.57
2018-01-24T06:38:00.786Z,4.90
2018-01-24T06:40:29.028Z,4.60
2018-01-24T06:42:57.284Z,4.67
2018-01-24T06:45:25.543Z,3.77
2018-01-24T06:47:53.795Z,4.93
2018-01-24T06:50:22.039Z,4.20
2018-01-24T06:52:50.333Z,4.57
2018-01-24T06:55:19.334Z,4.80
2018-01-24T06:57:48.432Z,3.83
2018-01-24T07:00:16.638Z,4.50
2018-01-24T07:02:44.893Z,3.73
2018-01-24T07:05:13.901Z,4.80
2018-01-24T07:07:43.140Z,4.07
2018-01-24T07:10:11.533Z,4.50
2018-01-24T07:12:51.817Z,4.30
2018-01-24T07:15:20.041Z,4.40
2018-01-24T07:17:48.429Z,4.60
2018-01-24T07:20:16.754Z,5.10
2018-01-24T07:22:45.025Z,5.20
2018-01-24T07:25:13.261Z,4.20
2018-01-24T07:27:41.548Z,4.73
2018-01-24T07:30:09.795Z,4.47
2018-01-24T07:32:39.675Z,4.60
2018-01-24T07:35:07.906Z,4.43
2018-01-24T07:37:36.937Z,4.00
2018-01-24T07:40:05.914Z,4.90
2018-01-24T07:42:34.166Z,5.20
2018-01-24T07:45:03.275Z,4.60
2018-01-24T07:47:31.555Z,4.57
2018-01-24T07:50:00.572Z,3.80
2018-01-24T07:52:28.862Z,4.30
2018-01-24T07:54:57.125Z,4.57
2018-01-24T07:57:26.169Z,4.47
2018-01-24T07:59:54.441Z,6.43
2018-01-24T08:02:22.674Z,4.47
2018-01-24T08:04:51.689Z,4.10
2018-01-24T08:07:19.929Z,4.57
2018-01-24T08:09:48.181Z,4.37
2018-01-24T08:12:16.424Z,4.77
2018-01-24T08:14:45.441Z,4.40
2018-01-24T08:17:13.677Z,4.50
2018-01-24T08:19:42.010Z,3.70
2018-01-24T08:22:10.297Z,4.73
2018-01-24T08:24:38.548Z,4.70
2018-01-24T08:27:06.791Z,4.97
2018-01-24T08:29:35.077Z,5.40
2018-01-24T08:32:04.122Z,4.80
2018-01-24T08:34:32.379Z,5.20
2018-01-24T08:37:00.690Z,5.57
2018-01-24T08:39:29.004Z,4.90
2018-01-24T08:41:57.298Z,5.30
2018-01-24T08:44:26.383Z,4.60
2018-01-24T08:46:54.731Z,5.10
2018-01-24T08:49:23.010Z,4.37
2018-01-24T08:51:51.286Z,5.00
2018-01-24T08:54:19.912Z,4.40
2018-01-24T08:56:48.238Z,4.80
2018-01-24T08:59:16.884Z,6.57
2018-01-24T09:02:03.287Z,4.37
2018-01-24T09:04:55.600Z,4.47
2018-01-24T09:07:47.977Z,4.80
2018-01-24T09:10:40.156Z,4.60
2018-01-24T09:13:32.267Z,3.97
2018-01-24T09:16:24.290Z,3.73
2018-01-24T09:19:17.106Z,4.37
2018-01-24T09:22:09.025Z,4.67
2018-01-24T09:24:59.562Z,3.70
2018-01-24T09:27:28.848Z,4.80
2018-01-24T09:29:57.101Z,4.03
2018-01-24T09:32:26.108Z,4.73
2018-01-24T09:34:54.367Z,3.23
2018-01-24T09:37:22.612Z,4.10
2018-01-24T09:39:50.912Z,3.97
2018-01-24T09:42:19.170Z,3.47
2018-01-24T09:44:47.501Z,3.63
2018-01-24T09:47:16.546Z,3.73
2018-01-24T09:49:44.808Z,4.20
2018-01-24T09:52:13.131Z,5.13
2018-01-24T09:54:41.474Z,4.70
2018-01-24T09:57:09.772Z,4.37
2018-01-24T09:59:38.038Z,3.33
2018-01-24T10:02:06.286Z,3.83
2018-01-24T10:04:35.313Z,3.40
2018-01-24T10:07:03.645Z,3.50
2018-01-24T10:09:31.909Z,3.53
2018-01-24T10:12:00.209Z,3.20
2018-01-24T10:14:28.545Z,3.27
2018-01-24T10:16:56.813Z,2.23
2018-01-24T10:19:25.080Z,1.73
2018-01-24T10:21:53.352Z,2.00
2018-01-24T10:24:21.869Z,2.30
2018-01-24T10:26:50.110Z,2.47
2018-01-24T10:29:19.141Z,2.67
2018-01-24T10:31:47.397Z,1.70
2018-01-24T10:34:15.643Z,1.77
2018-01-24T10:36:43.994Z,2.30
2018-01-24T10:39:12.282Z,2.30
2018-01-24T10:41:40.842Z,2.40
2018-01-24T10:44:10.257Z,2.20
2018-01-24T10:46:38.564Z,2.20
2018-01-24T10:49:06.829Z,2.43
2018-01-24T10:51:35.112Z,2.60
2018-01-24T10:54:03.362Z,2.13
2018-01-24T10:56:32.500Z,2.23
2018-01-24T10:59:00.746Z,3.27
2018-01-24T11:01:29.058Z,2.60
2018-01-24T11:03:57.295Z,2.50
2018-01-24T11:06:26.337Z,2.90
2018-01-24T11:08:54.586Z,2.50
2018-01-24T11:11:22.858Z,3.37
2018-01-24T11:13:51.871Z,2.70
2018-01-24T11:16:20.172Z,2.90
2018-01-24T11:18:48.416Z,2.97
2018-01-24T11:21:16.684Z,2.63
2018-01-24T11:23:45.690Z,2.80
2018-01-24T11:26:14.822Z,2.60
2018-01-24T11:28:43.107Z,3.43
2018-01-24T11:31:11.382Z,3.07
2018-01-24T11:33:39.624Z,3.53
2018-01-24T11:36:08.767Z,3.70
2018-01-24T11:38:37.047Z,2.80
2018-01-24T11:41:05.347Z,3.00
2018-01-24T11:43:33.658Z,3.10
2018-01-24T11:46:03.425Z,3.07
2018-01-24T11:48:31.681Z,2.87
2018-01-24T11:50:59.990Z,2.87
2018-01-24T11:53:28.224Z,2.60
2018-01-24T11:55:57.259Z,2.93
2018-01-24T11:58:25.489Z,2.80
2018-01-24T12:00:53.746Z,3.00
2018-01-24T12:03:22.097Z,2.60
2018-01-24T12:05:50.363Z,3.30
2018-01-24T12:08:18.609Z,3.23
2018-01-24T12:10:46.882Z,3.20
2018-01-24T12:13:15.109Z,2.83
2018-01-24T12:15:43.571Z,2.90
2018-01-24T12:18:12.597Z,3.10
2018-01-24T12:20:40.857Z,2.63
2018-01-24T12:23:09.109Z,3.27
2018-01-24T12:25:37.376Z,3.40
2018-01-24T12:28:06.385Z,2.77
2018-01-24T12:30:34.651Z,3.10
2018-01-24T12:33:02.909Z,3.50
2018-01-24T12:35:31.178Z,4.20
2018-01-24T12:37:59.465Z,3.50
2018-01-24T12:40:27.738Z,3.63
2018-01-24T12:42:55.990Z,3.20
2018-01-24T12:45:25.019Z,2.80
2018-01-24T12:47:53.254Z,3.20
2018-01-24T12:50:22.282Z,2.90
2018-01-24T12:52:50.529Z,3.17
2018-01-24T12:55:18.815Z,3.10
2018-01-24T12:57:47.841Z,2.70
2018-01-24T13:00:16.081Z,2.70
2018-01-24T13:02:45.107Z,2.77
2018-01-24T13:05:13.755Z,2.90
2018-01-24T13:07:42.813Z,3.10
2018-01-24T13:10:11.111Z,2.77
2018-01-24T13:12:39.383Z,3.30
2018-01-24T13:15:07.663Z,3.80
2018-01-24T13:17:35.925Z,3.53
2018-01-24T13:20:04.261Z,3.70
2018-01-24T13:22:32.752Z,3.57
2018-01-24T13:25:00.984Z,3.67
2018-01-24T13:27:29.273Z,3.80
2018-01-24T13:29:57.518Z,3.83
2018-01-24T13:32:26.588Z,3.33
2018-01-24T13:34:54.856Z,3.03
2018-01-24T13:37:23.218Z,2.83
2018-01-24T13:39:51.494Z,2.40
2018-01-24T13:42:19.770Z,2.67
2018-01-24T13:44:48.091Z,2.20
2018-01-24T13:47:16.327Z,2.67
2018-01-24T13:49:44.574Z,1.87
2018-01-24T13:52:12.890Z,2.23
2018-01-24T13:54:41.184Z,2.10
2018-01-24T13:57:09.457Z,2.37
2018-01-24T13:59:37.706Z,2.23
2018-01-24T14:02:05.961Z,2.50
2018-01-24T14:04:35.104Z,1.93
2018-01-24T14:07:03.375Z,2.23
2018-01-24T14:09:31.626Z,1.80
2018-01-24T14:12:00.646Z,2.00
2018-01-24T14:14:28.886Z,1.83
2018-01-24T14:16:57.236Z,2.07
2018-01-24T14:19:25.474Z,2.20
2018-01-24T14:21:54.556Z,1.67
2018-01-24T14:24:22.750Z,1.77
2018-01-24T14:26:51.828Z,1.90
2018-01-24T14:29:20.053Z,1.93
2018-01-24T14:31:49.286Z,1.90
2018-01-24T14:34:17.522Z,1.60
2018-01-24T14:36:45.802Z,2.10
2018-01-24T14:39:14.113Z,1.40
2018-01-24T14:41:42.426Z,1.60
2018-01-24T14:44:10.663Z,1.60
2018-01-24T14:46:38.956Z,2.00
2018-01-24T14:49:07.196Z,2.20
2018-01-24T14:51:36.238Z,2.23
2018-01-24T14:54:04.752Z,1.70
2018-01-24T14:56:33.107Z,1.50
2018-01-24T14:59:01.373Z,2.23
2018-01-24T15:01:29.645Z,1.83
2018-01-24T15:03:57.891Z,2.27
2018-01-24T15:06:27.904Z,2.10
2018-01-24T15:08:56.146Z,2.10
2018-01-24T15:11:24.465Z,2.17
2018-01-24T15:13:52.728Z,2.10
2018-01-24T15:16:21.042Z,2.43
2018-01-24T15:18:50.885Z,2.07
2018-01-24T15:21:19.215Z,2.50
2018-01-24T15:23:47.465Z,2.43
2018-01-24T15:26:16.845Z,2.23
2018-01-24T15:28:45.642Z,2.30
2018-01-24T15:31:13.914Z,1.93
2018-01-24T15:33:42.957Z,2.10
2018-01-24T15:36:11.212Z,2.03
2018-01-24T15:38:39.458Z,2.33
2018-01-24T15:41:08.513Z,2.13
2018-01-24T15:43:37.728Z,2.00
2018-01-24T15:46:06.048Z,2.10
2018-01-24T15:48:34.309Z,2.10
2018-01-24T15:51:02.655Z,1.97
2018-01-24T15:53:30.998Z,2.20
2018-01-24T15:55:59.243Z,2.10
2018-01-24T15:58:27.641Z,1.90
2018-01-24T16:00:56.667Z,1.80
2018-01-24T16:03:24.921Z,2.17
2018-01-24T16:05:53.934Z,2.03
2018-01-24T16:08:22.200Z,2.13
2018-01-24T16:10:51.211Z,1.60
2018-01-24T16:13:19.904Z,1.60
2018-01-24T16:15:48.241Z,1.60
2018-01-24T16:18:16.498Z,1.70
2018-01-24T16:20:44.745Z,1.63
2018-01-24T16:23:13.026Z,1.40
2018-01-24T16:25:42.258Z,1.97
2018-01-24T16:28:10.490Z,1.77
2018-01-24T16:30:39.506Z,1.70
2018-01-24T16:33:07.788Z,1.67
2018-01-24T16:35:36.050Z,2.13
2018-01-24T16:38:05.066Z,2.57
2018-01-24T16:40:33.333Z,1.70
2018-01-24T16:43:01.597Z,2.00
2018-01-24T16:45:30.630Z,1.47
2018-01-24T16:47:58.902Z,1.83
2018-01-24T16:50:27.145Z,1.37
2018-01-24T16:52:56.178Z,1.87
2018-01-24T16:55:24.430Z,2.00
2018-01-24T16:57:53.473Z,2.03
2018-01-24T17:00:21.727Z,1.80
2018-01-24T17:02:50.038Z,1.90
2018-01-24T17:05:18.279Z,2.13
2018-01-24T17:07:47.310Z,1.93
2018-01-24T17:10:15.599Z,2.70
2018-01-24T17:12:43.870Z,3.00
2018-01-24T17:15:12.122Z,1.83
2018-01-24T17:17:41.157Z,1.40
2018-01-24T17:20:09.439Z,1.60
2018-01-24T17:22:37.751Z,1.30
2018-01-24T17:25:06.003Z,1.77
2018-01-24T17:27:34.417Z,2.10
2018-01-24T17:30:02.678Z,1.67
2018-01-24T17:32:30.930Z,1.33
2018-01-24T17:34:59.181Z,1.90
2018-01-24T17:37:28.203Z,1.60
2018-01-24T17:39:56.470Z,1.87
2018-01-24T17:42:24.726Z,1.80
2018-01-24T17:44:52.977Z,1.70
2018-01-24T17:47:21.334Z,1.90
2018-01-24T17:49:49.765Z,1.50
2018-01-24T17:52:18.002Z,1.70
2018-01-24T17:54:46.246Z,1.57
2018-01-24T17:57:15.275Z,1.97
2018-01-24T17:59:43.517Z,1.30
2018-01-24T18:02:12.549Z,2.43
2018-01-24T18:04:42.342Z,2.13
2018-01-24T18:07:11.379Z,1.70
2018-01-24T18:09:39.794Z,1.83
2018-01-24T18:12:08.064Z,2.27
2018-01-24T18:14:36.327Z,2.03
2018-01-24T18:17:04.610Z,2.07
2018-01-24T18:19:32.889Z,2.00
2018-01-24T18:22:01.246Z,2.20
2018-01-24T18:24:29.547Z,2.30
2018-01-24T18:26:57.797Z,2.10
2018-01-24T18:29:26.098Z,2.00
2018-01-24T18:31:54.366Z,2.87
2018-01-24T18:34:22.664Z,1.83
2018-01-24T18:36:50.922Z,2.53
2018-01-24T18:39:19.178Z,2.67
2018-01-24T18:41:48.206Z,2.40
2018-01-24T18:44:16.455Z,2.77
2018-01-24T18:46:45.470Z,1.80
2018-01-24T18:49:13.976Z,2.83
2018-01-24T18:51:42.239Z,3.37
2018-01-24T18:54:11.270Z,2.30
2018-01-24T18:56:39.533Z,2.40
2018-01-24T18:59:07.823Z,2.73
2018-01-24T19:01:36.058Z,2.80
2018-01-24T19:04:05.092Z,2.63
2018-01-24T19:06:33.329Z,2.70
2018-01-24T19:09:02.358Z,2.43
2018-01-24T19:11:30.616Z,2.80
2018-01-24T19:13:59.636Z,2.50
2018-01-24T19:16:27.896Z,2.40
2018-01-24T19:18:57.043Z,2.43
2018-01-24T19:21:25.282Z,2.60
2018-01-24T19:23:53.549Z,3.20
2018-01-24T19:26:21.797Z,3.27
2018-01-24T19:28:50.065Z,2.90
2018-01-24T19:31:18.318Z,3.00
2018-01-24T19:33:46.612Z,3.30
2018-01-24T19:36:14.882Z,3.30
2018-01-24T19:38:43.154Z,3.40
2018-01-24T19:41:11.407Z,3.20
2018-01-24T19:43:40.416Z,3.33
2018-01-24T19:46:08.695Z,4.50
2018-01-24T19:48:36.946Z,3.20
2018-01-24T19:51:05.321Z,2.47
2018-01-24T19:53:33.677Z,2.70
2018-01-24T19:56:01.934Z,3.63
2018-01-24T19:58:30.181Z,3.17
2018-01-24T20:00:59.209Z,3.23
2018-01-24T20:03:27.458Z,3.53
2018-01-24T20:05:56.527Z,3.17
2018-01-24T20:08:24.766Z,3.30
2018-01-24T20:10:53.040Z,2.83
2018-01-24T20:13:21.381Z,3.17
2018-01-24T20:15:49.622Z,3.83
2018-01-24T20:18:17.881Z,3.23
2018-01-24T20:20:46.137Z,3.70
2018-01-24T20:23:15.168Z,3.27
2018-01-24T20:25:44.176Z,3.30
2018-01-24T20:28:12.462Z,3.27
2018-01-24T20:30:40.726Z,3.20
2018-01-24T20:33:08.971Z,3.07
2018-01-24T20:35:38.032Z,2.93
2018-01-24T20:38:06.289Z,2.87
2018-01-24T20:40:34.551Z,3.10
2018-01-24T20:43:02.859Z,3.37
2018-01-24T20:45:31.139Z,3.20
2018-01-24T20:47:59.386Z,3.00
2018-01-24T20:50:28.405Z,2.50
2018-01-24T20:52:56.659Z,3.40
2018-01-24T20:55:25.695Z,3.90
2018-01-24T20:57:53.986Z,3.33
2018-01-24T21:00:22.953Z,2.80
2018-01-24T21:02:51.255Z,3.60
2018-01-24T21:05:19.503Z,3.20
2018-01-24T21:07:47.757Z,3.20
2018-01-24T21:10:16.232Z,3.17
2018-01-24T21:12:44.586Z,3.67
2018-01-24T21:15:12.873Z,3.10
2018-01-24T21:17:41.118Z,3.13
2018-01-24T21:20:09.420Z,3.17
2018-01-24T21:22:37.678Z,3.23
2018-01-24T21:25:05.985Z,3.50
2018-01-24T21:27:34.245Z,3.80
2018-01-24T21:30:14.590Z,3.70
2018-01-24T21:32:54.664Z,3.50
2018-01-24T21:35:35.065Z,2.60
2018-01-24T21:38:03.427Z,3.50
2018-01-24T21:40:31.717Z,2.90
2018-01-24T21:42:59.989Z,3.63
2018-01-24T21:45:28.235Z,3.40
2018-01-24T21:47:56.551Z,3.23
2018-01-24T21:50:24.831Z,3.40
2018-01-24T21:52:53.109Z,3.00
2018-01-24T21:55:21.386Z,3.80
2018-01-24T21:57:49.640Z,3.30
2018-01-24T22:00:17.963Z,3.30
2018-01-24T22:02:46.226Z,3.10
2018-01-24T22:05:14.510Z,2.80
2018-01-24T22:07:42.783Z,2.10
2018-01-24T22:10:11.067Z,2.37
2018-01-24T22:12:39.349Z,3.00
2018-01-24T22:15:07.607Z,2.80
2018-01-24T22:17:35.903Z,2.63
2018-01-24T22:20:04.181Z,2.37
2018-01-24T22:22:32.473Z,2.23
2018-01-24T22:25:00.734Z,2.67
2018-01-24T22:27:28.982Z,2.40
2018-01-24T22:29:58.057Z,2.40
2018-01-24T22:32:26.269Z,3.13
2018-01-24T22:34:54.579Z,2.73
2018-01-24T22:37:22.875Z,2.50
2018-01-24T22:39:51.137Z,2.60
2018-01-24T22:42:19.454Z,3.13
2018-01-24T22:44:47.717Z,3.30
2018-01-24T22:47:16.329Z,2.80
2018-01-24T22:49:45.123Z,2.40
2018-01-24T22:52:13.425Z,2.77
2018-01-24T22:54:43.190Z,2.60
2018-01-24T22:57:11.441Z,2.37
2018-01-24T22:59:39.737Z,2.43
2018-01-24T23:02:07.986Z,2.90
2018-01-24T23:04:37.126Z,2.70
2018-01-24T23:07:05.377Z,2.73
2018-01-24T23:09:34.575Z,2.57
2018-01-24T23:12:03.586Z,2.50
2018-01-24T23:14:31.891Z,2.53
2018-01-24T23:17:00.133Z,2.23
2018-01-24T23:19:29.158Z,2.70
2018-01-24T23:21:57.401Z,2.27
2018-01-24T23:24:26.586Z,2.50
2018-01-24T23:26:54.837Z,2.30
2018-01-24T23:29:23.151Z,2.37
2018-01-24T23:31:51.353Z,2.60
2018-01-24T23:34:20.354Z,2.43
2018-01-24T23:36:48.609Z,2.97
2018-01-24T23:39:16.853Z,3.43
2018-01-24T23:41:45.229Z,2.80
2018-01-24T23:44:13.524Z,2.40
2018-01-24T23:46:41.788Z,2.63
2018-01-24T23:49:10.718Z,2.77
2018-01-24T23:51:39.823Z,2.17
2018-01-24T23:54:08.175Z,2.93
2018-01-24T23:56:36.445Z,2.90
2018-01-24T23:59:04.689Z,3.03
